createdAt,value
2019-05-19T00:01:46.018Z,13.70
2019-05-19T00:04:15.322Z,13.70
2019-05-19T00:06:44.520Z,13.70
2019-05-19T00:09:16.514Z,13.70
2019-05-19T00:11:44.499Z,13.60
2019-05-19T00:14:14.004Z,13.60
2019-05-19T00:16:43.091Z,13.70
2019-05-19T00:19:25.882Z,13.70
2019-05-19T00:21:43.036Z,13.60
2019-05-19T00:24:12.170Z,13.60
2019-05-19T00:26:41.204Z,13.60
2019-05-19T00:29:10.316Z,13.50
2019-05-19T00:31:39.622Z,13.40
2019-05-19T00:34:08.687Z,13.40
2019-05-19T00:36:37.861Z,13.30
2019-05-19T00:39:07.332Z,13.20
2019-05-19T00:41:36.391Z,13.20
2019-05-19T00:44:05.588Z,13.20
2019-05-19T00:46:34.855Z,13.20
2019-05-19T00:49:03.965Z,13.10
2019-05-19T00:51:33.932Z,13.10
2019-05-19T00:54:03.087Z,13.20
2019-05-19T00:56:32.856Z,13.40
2019-05-19T00:59:02.660Z,13.40
2019-05-19T01:01:31.981Z,13.40
2019-05-19T01:04:01.190Z,13.40
2019-05-19T01:06:30.318Z,13.40
2019-05-19T01:08:59.488Z,13.40
2019-05-19T01:11:28.620Z,13.50
2019-05-19T01:13:57.664Z,13.50
2019-05-19T01:16:26.840Z,13.50
2019-05-19T01:18:56.068Z,13.50
2019-05-19T01:21:27.064Z,13.50
2019-05-19T01:23:56.884Z,13.50
2019-05-19T01:26:26.159Z,13.60
2019-05-19T01:28:56.174Z,13.50
2019-05-19T01:31:26.215Z,13.50
2019-05-19T01:33:55.262Z,13.40
2019-05-19T01:36:24.615Z,13.40
2019-05-19T01:38:53.672Z,13.40
2019-05-19T01:41:22.780Z,13.30
2019-05-19T01:43:51.909Z,13.30
2019-05-19T01:46:20.985Z,13.30
2019-05-19T01:48:49.920Z,13.40
2019-05-19T01:51:19.116Z,13.40
2019-05-19T01:53:48.242Z,13.40
2019-05-19T01:56:17.264Z,13.50
2019-05-19T01:58:46.258Z,13.50
2019-05-19T02:01:15.255Z,13.50
2019-05-19T02:03:44.387Z,13.40
2019-05-19T02:06:13.658Z,13.50
2019-05-19T02:08:42.827Z,13.50
2019-05-19T02:11:16.091Z,13.50
2019-05-19T02:13:45.206Z,13.50
2019-05-19T02:16:14.454Z,13.40
2019-05-19T02:18:43.632Z,13.30
2019-05-19T02:21:12.838Z,13.20
2019-05-19T02:23:44.213Z,13.10
2019-05-19T02:26:13.457Z,13.10
2019-05-19T02:28:42.520Z,12.90
2019-05-19T02:31:11.798Z,12.90
2019-05-19T02:33:40.980Z,12.90
2019-05-19T02:36:10.138Z,12.80
2019-05-19T02:38:39.359Z,12.70
2019-05-19T02:41:11.796Z,12.70
2019-05-19T02:43:46.229Z,12.60
2019-05-19T02:46:16.078Z,12.50
2019-05-19T02:48:46.101Z,12.40
2019-05-19T02:51:18.046Z,12.40
2019-05-19T02:53:48.514Z,12.30
2019-05-19T02:56:18.237Z,12.30
2019-05-19T02:58:48.368Z,12.20
2019-05-19T03:01:17.586Z,12.20
2019-05-19T03:03:46.699Z,12.20
2019-05-19T03:06:15.863Z,12.20
2019-05-19T03:08:45.060Z,12.20
2019-05-19T03:11:14.202Z,12.20
2019-05-19T03:13:43.304Z,12.30
2019-05-19T03:16:12.371Z,12.30
2019-05-19T03:18:41.557Z,12.30
2019-05-19T03:21:15.117Z,12.30
2019-05-19T03:23:44.377Z,12.30
2019-05-19T03:26:13.554Z,12.30
2019-05-19T03:28:42.663Z,12.30
2019-05-19T03:31:33.690Z,12.40
2019-05-19T03:34:02.867Z,12.50
2019-05-19T03:36:32.041Z,12.80
2019-05-19T03:39:01.135Z,13.10
2019-05-19T03:41:30.129Z,13.50
2019-05-19T03:43:59.080Z,13.70
2019-05-19T03:46:28.279Z,14.00
2019-05-19T03:48:57.348Z,14.40
2019-05-19T03:51:31.475Z,14.70
2019-05-19T03:53:57.069Z,15.00
2019-05-19T03:56:26.241Z,15.30
2019-05-19T03:58:55.366Z,15.60
2019-05-19T04:01:24.495Z,15.90
2019-05-19T04:03:53.674Z,15.80
2019-05-19T04:06:22.857Z,15.70
2019-05-19T04:08:51.978Z,15.70
2019-05-19T04:11:21.125Z,15.70
2019-05-19T04:13:50.191Z,15.70
2019-05-19T04:16:19.267Z,15.80
2019-05-19T04:18:48.402Z,15.80
2019-05-19T04:21:17.416Z,15.90
2019-05-19T04:23:46.480Z,16.00
2019-05-19T04:26:15.646Z,16.20
2019-05-19T04:28:44.714Z,16.40
2019-05-19T04:31:13.777Z,16.60
2019-05-19T04:33:42.852Z,17.00
2019-05-19T04:36:12.165Z,17.20
2019-05-19T04:38:41.147Z,17.50
2019-05-19T04:41:10.236Z,17.60
2019-05-19T04:43:39.480Z,18.20
2019-05-19T04:46:08.476Z,18.60
2019-05-19T04:48:37.554Z,18.60
2019-05-19T04:51:06.702Z,18.50
2019-05-19T04:53:35.876Z,18.40
2019-05-19T04:56:05.027Z,18.10
2019-05-19T04:58:34.121Z,17.90
2019-05-19T05:01:03.236Z,17.90
2019-05-19T05:03:32.355Z,18.30
2019-05-19T05:06:01.583Z,18.70
2019-05-19T05:08:30.991Z,19.00
2019-05-19T05:11:00.068Z,18.80
2019-05-19T05:13:29.173Z,18.90
2019-05-19T05:15:58.273Z,18.50
2019-05-19T05:18:27.309Z,18.20
2019-05-19T05:20:56.519Z,18.30
2019-05-19T05:23:25.632Z,18.70
2019-05-19T05:25:54.678Z,18.70
2019-05-19T05:28:23.798Z,18.60
2019-05-19T05:30:52.871Z,18.50
2019-05-19T05:33:21.868Z,18.40
2019-05-19T05:35:51.168Z,18.00
2019-05-19T05:38:20.073Z,17.70
2019-05-19T05:40:49.176Z,17.60
2019-05-19T05:43:18.419Z,17.50
2019-05-19T05:45:47.471Z,17.60
2019-05-19T05:48:16.648Z,17.50
2019-05-19T05:50:45.750Z,17.40
2019-05-19T05:53:14.827Z,17.40
2019-05-19T05:55:44.186Z,17.50
2019-05-19T05:58:13.373Z,17.60
2019-05-19T06:00:42.676Z,17.60
2019-05-19T06:03:11.796Z,17.70
2019-05-19T06:05:40.851Z,17.80
2019-05-19T06:08:09.990Z,18.10
2019-05-19T06:10:38.991Z,18.30
2019-05-19T06:13:08.332Z,18.40
2019-05-19T06:15:37.483Z,18.40
2019-05-19T06:18:06.449Z,18.40
2019-05-19T06:20:35.546Z,18.50
2019-05-19T06:23:04.692Z,18.40
2019-05-19T06:25:33.880Z,18.50
2019-05-19T06:28:03.031Z,18.50
2019-05-19T06:30:32.112Z,18.30
2019-05-19T06:33:02.134Z,18.20
2019-05-19T06:35:31.352Z,18.40
2019-05-19T06:38:00.728Z,18.50
2019-05-19T06:40:29.855Z,18.60
2019-05-19T06:42:58.924Z,18.70
2019-05-19T06:45:28.260Z,19.00
2019-05-19T06:47:57.417Z,19.00
2019-05-19T06:50:26.574Z,19.30
2019-05-19T06:53:11.195Z,19.50
2019-05-19T06:55:26.660Z,19.60
2019-05-19T06:57:55.764Z,19.90
2019-05-19T07:00:25.066Z,19.90
2019-05-19T07:02:54.240Z,20.00
2019-05-19T07:05:23.374Z,20.20
2019-05-19T07:07:52.392Z,20.40
2019-05-19T07:10:21.480Z,20.60
2019-05-19T07:12:50.584Z,20.60
2019-05-19T07:15:19.971Z,20.80
2019-05-19T07:17:49.096Z,20.90
2019-05-19T07:20:18.225Z,20.80
2019-05-19T07:22:47.371Z,20.80
2019-05-19T07:25:16.660Z,20.80
2019-05-19T07:27:46.138Z,20.70
2019-05-19T07:30:17.037Z,20.70
2019-05-19T07:32:46.177Z,20.70
2019-05-19T07:35:18.601Z,20.80
2019-05-19T07:37:47.815Z,20.90
2019-05-19T07:40:17.114Z,21.10
2019-05-19T07:42:46.344Z,21.20
2019-05-19T07:45:15.699Z,21.30
2019-05-19T07:47:44.887Z,21.40
2019-05-19T07:50:14.173Z,21.50
2019-05-19T07:52:43.377Z,21.60
2019-05-19T07:55:12.507Z,21.80
2019-05-19T07:57:41.779Z,21.70
2019-05-19T08:00:11.282Z,21.80
2019-05-19T08:02:40.483Z,21.90
2019-05-19T08:05:09.805Z,22.00
2019-05-19T08:07:39.123Z,22.10
2019-05-19T08:10:08.899Z,22.30
2019-05-19T08:12:37.970Z,22.50
2019-05-19T08:15:08.361Z,22.70
2019-05-19T08:17:37.725Z,23.00
2019-05-19T08:20:07.092Z,22.90
2019-05-19T08:22:36.164Z,22.90
2019-05-19T08:25:06.357Z,22.80
2019-05-19T08:27:35.919Z,22.70
2019-05-19T08:30:05.437Z,22.90
2019-05-19T08:32:34.802Z,22.90
2019-05-19T08:35:04.481Z,23.00
2019-05-19T08:37:33.617Z,23.10
2019-05-19T08:40:02.669Z,23.20
2019-05-19T08:42:31.773Z,23.20
2019-05-19T08:45:00.858Z,23.30
2019-05-19T08:47:29.984Z,23.40
2019-05-19T08:49:59.056Z,23.40
2019-05-19T08:52:28.740Z,23.20
2019-05-19T08:54:57.835Z,23.40
2019-05-19T08:57:26.992Z,23.50
2019-05-19T08:59:56.080Z,23.70
2019-05-19T09:02:25.240Z,23.70
2019-05-19T09:04:54.357Z,23.70
2019-05-19T09:07:23.555Z,23.60
2019-05-19T09:09:52.847Z,23.50
2019-05-19T09:12:21.951Z,23.50
2019-05-19T09:14:51.245Z,23.50
2019-05-19T09:17:20.547Z,23.60
2019-05-19T09:19:49.693Z,23.60
2019-05-19T09:22:19.841Z,23.40
2019-05-19T09:24:49.077Z,23.30
2019-05-19T09:27:18.372Z,23.20
2019-05-19T09:29:47.532Z,23.30
2019-05-19T09:32:16.771Z,23.40
2019-05-19T09:34:46.256Z,23.60
2019-05-19T09:37:15.440Z,23.50
2019-05-19T09:39:46.089Z,23.70
2019-05-19T09:42:15.133Z,23.70
2019-05-19T09:44:44.268Z,23.80
2019-05-19T09:47:13.430Z,23.80
2019-05-19T09:49:42.962Z,23.60
2019-05-19T09:52:16.826Z,23.70
2019-05-19T09:54:45.674Z,23.80
2019-05-19T09:57:14.034Z,24.00
2019-05-19T09:59:43.581Z,24.10
2019-05-19T10:02:12.874Z,24.00
2019-05-19T10:04:42.257Z,24.00
2019-05-19T10:07:11.883Z,24.10
2019-05-19T10:10:01.284Z,24.10
2019-05-19T10:12:31.113Z,24.20
2019-05-19T10:15:00.757Z,24.20
2019-05-19T10:17:33.157Z,24.30
2019-05-19T10:20:02.544Z,24.30
2019-05-19T10:22:31.977Z,24.40
2019-05-19T10:25:20.361Z,24.30
2019-05-19T10:27:32.769Z,24.20
2019-05-19T10:30:02.142Z,24.30
2019-05-19T10:32:31.521Z,24.50
2019-05-19T10:35:00.997Z,24.70
2019-05-19T10:37:30.397Z,24.80
2019-05-19T10:39:59.730Z,25.10
2019-05-19T10:42:29.147Z,25.00
2019-05-19T10:44:58.927Z,24.80
2019-05-19T10:47:28.335Z,24.60
2019-05-19T10:49:57.740Z,24.60
2019-05-19T10:52:27.112Z,24.50
2019-05-19T10:54:56.506Z,24.80
2019-05-19T10:57:25.910Z,24.60
2019-05-19T10:59:55.189Z,24.60
2019-05-19T11:02:24.500Z,24.50
2019-05-19T11:04:54.059Z,24.50
2019-05-19T11:07:23.520Z,24.50
2019-05-19T11:09:52.853Z,24.70
2019-05-19T11:12:22.232Z,25.00
2019-05-19T11:14:51.686Z,25.20
2019-05-19T11:17:21.243Z,25.40
2019-05-19T11:19:50.566Z,25.20
2019-05-19T11:22:20.444Z,25.00
2019-05-19T11:24:50.285Z,25.10
2019-05-19T11:27:19.774Z,25.30
2019-05-19T11:29:49.119Z,25.50
2019-05-19T11:32:18.439Z,25.70
2019-05-19T11:34:47.853Z,25.70
2019-05-19T11:37:17.287Z,25.40
2019-05-19T11:39:47.085Z,25.20
2019-05-19T11:42:16.501Z,25.10
2019-05-19T11:44:46.011Z,25.10
2019-05-19T11:47:15.495Z,25.00
2019-05-19T11:49:44.844Z,24.80
2019-05-19T11:52:14.177Z,24.80
2019-05-19T11:54:43.547Z,25.20
2019-05-19T11:57:12.975Z,25.40
2019-05-19T11:59:42.259Z,25.50
2019-05-19T12:02:11.608Z,25.50
2019-05-19T12:04:46.747Z,25.70
2019-05-19T12:07:16.034Z,25.70
2019-05-19T12:09:45.363Z,25.40
2019-05-19T12:12:14.820Z,25.20
2019-05-19T12:14:44.199Z,25.20
2019-05-19T12:17:13.615Z,25.10
2019-05-19T12:19:43.004Z,25.10
2019-05-19T12:22:12.393Z,25.40
2019-05-19T12:24:41.936Z,25.40
2019-05-19T12:27:11.456Z,25.80
2019-05-19T12:29:40.859Z,25.50
2019-05-19T12:32:10.318Z,25.50
2019-05-19T12:34:39.705Z,25.40
2019-05-19T12:37:09.329Z,25.30
2019-05-19T12:39:38.609Z,25.10
2019-05-19T12:42:14.885Z,25.00
2019-05-19T12:44:44.257Z,24.80
2019-05-19T12:47:13.651Z,24.50
2019-05-19T12:49:43.014Z,24.50
2019-05-19T12:52:12.421Z,24.30
2019-05-19T12:54:41.806Z,24.40
2019-05-19T12:57:11.085Z,24.80
2019-05-19T12:59:44.013Z,25.10
2019-05-19T13:02:13.416Z,25.10
2019-05-19T13:04:42.891Z,25.10
2019-05-19T13:07:15.492Z,25.10
2019-05-19T13:09:44.821Z,25.10
2019-05-19T13:12:14.355Z,25.10
2019-05-19T13:14:44.235Z,25.10
2019-05-19T13:17:13.638Z,25.00
2019-05-19T13:19:43.113Z,25.00
2019-05-19T13:22:12.499Z,25.30
2019-05-19T13:24:41.875Z,25.70
2019-05-19T13:27:13.431Z,25.70
2019-05-19T13:29:42.706Z,25.70
2019-05-19T13:32:12.024Z,25.70
2019-05-19T13:34:41.460Z,25.50
2019-05-19T13:37:10.699Z,25.20
2019-05-19T13:39:40.093Z,25.30
2019-05-19T13:42:09.452Z,25.00
2019-05-19T13:44:38.933Z,24.20
2019-05-19T13:47:08.219Z,23.90
2019-05-19T13:49:37.641Z,23.60
2019-05-19T13:52:06.898Z,23.50
2019-05-19T13:54:36.297Z,23.40
2019-05-19T13:57:12.336Z,23.40
2019-05-19T13:59:36.859Z,23.30
2019-05-19T14:02:06.198Z,23.30
2019-05-19T14:04:35.760Z,23.30
2019-05-19T14:07:05.412Z,23.70
2019-05-19T14:09:34.736Z,23.90
2019-05-19T14:12:04.122Z,24.00
2019-05-19T14:14:33.431Z,23.90
2019-05-19T14:17:02.750Z,23.80
2019-05-19T14:19:32.076Z,23.70
2019-05-19T14:22:01.443Z,23.60
2019-05-19T14:24:30.914Z,23.40
2019-05-19T14:27:00.174Z,23.30
2019-05-19T14:29:29.543Z,23.30
2019-05-19T14:31:58.980Z,23.00
2019-05-19T14:34:28.384Z,22.80
2019-05-19T14:36:57.825Z,22.80
2019-05-19T14:39:27.176Z,22.90
2019-05-19T14:42:00.279Z,23.00
2019-05-19T14:44:29.678Z,23.00
2019-05-19T14:46:59.134Z,23.00
2019-05-19T14:49:28.654Z,23.00
2019-05-19T14:51:58.040Z,23.10
2019-05-19T14:54:27.462Z,23.10
2019-05-19T14:56:56.849Z,23.40
2019-05-19T14:59:26.378Z,23.70
2019-05-19T15:01:55.736Z,23.80
2019-05-19T15:04:25.391Z,23.80
2019-05-19T15:06:54.982Z,24.10
2019-05-19T15:09:24.487Z,24.10
2019-05-19T15:11:54.077Z,24.10
2019-05-19T15:14:23.602Z,23.90
2019-05-19T15:16:53.626Z,23.60
2019-05-19T15:19:23.083Z,23.50
2019-05-19T15:21:52.824Z,23.50
2019-05-19T15:24:22.433Z,23.40
2019-05-19T15:26:52.723Z,23.20
2019-05-19T15:29:22.919Z,22.90
2019-05-19T15:31:52.493Z,22.70
2019-05-19T15:34:22.062Z,22.70
2019-05-19T15:36:51.495Z,22.80
2019-05-19T15:39:21.022Z,22.80
2019-05-19T15:41:51.760Z,22.80
2019-05-19T15:44:21.328Z,22.80
2019-05-19T15:46:50.939Z,22.80
2019-05-19T15:49:20.458Z,22.80
2019-05-19T15:52:01.962Z,22.80
2019-05-19T15:54:21.140Z,22.90
2019-05-19T15:56:50.530Z,22.90
2019-05-19T15:59:20.019Z,23.00
2019-05-19T16:01:49.442Z,23.00
2019-05-19T16:04:19.216Z,23.00
2019-05-19T16:06:48.702Z,23.10
2019-05-19T16:09:18.217Z,23.20
2019-05-19T16:11:47.811Z,23.40
2019-05-19T16:14:17.234Z,23.50
2019-05-19T16:16:46.811Z,23.30
2019-05-19T16:19:16.375Z,23.10
2019-05-19T16:21:45.800Z,23.10
2019-05-19T16:24:15.210Z,23.00
2019-05-19T16:26:44.657Z,22.80
2019-05-19T16:29:14.245Z,22.70
2019-05-19T16:31:43.754Z,22.60
2019-05-19T16:34:13.148Z,22.60
2019-05-19T16:36:42.678Z,22.60
2019-05-19T16:39:12.059Z,22.60
2019-05-19T16:41:41.588Z,22.60
2019-05-19T16:44:11.127Z,23.20
2019-05-19T16:46:40.586Z,23.90
2019-05-19T16:49:09.957Z,24.20
2019-05-19T16:51:39.562Z,24.90
2019-05-19T16:54:13.326Z,25.50
2019-05-19T16:56:42.933Z,25.50
2019-05-19T16:59:12.496Z,25.10
2019-05-19T17:01:42.473Z,24.40
2019-05-19T17:04:12.261Z,23.90
2019-05-19T17:06:41.869Z,23.80
2019-05-19T17:09:11.304Z,23.70
2019-05-19T17:11:41.341Z,23.50
2019-05-19T17:14:10.872Z,23.30
2019-05-19T17:16:40.433Z,23.10
2019-05-19T17:19:10.052Z,22.80
2019-05-19T17:21:39.524Z,22.60
2019-05-19T17:24:09.102Z,22.40
2019-05-19T17:26:38.591Z,22.30
2019-05-19T17:29:31.889Z,22.20
2019-05-19T17:32:26.191Z,22.20
2019-05-19T17:34:56.270Z,22.10
2019-05-19T17:37:25.692Z,22.10
2019-05-19T17:39:55.109Z,22.00
2019-05-19T17:42:24.777Z,22.00
2019-05-19T17:44:54.225Z,22.00
2019-05-19T17:47:23.612Z,22.00
2019-05-19T17:49:52.946Z,22.00
2019-05-19T17:52:22.396Z,22.00
2019-05-19T17:54:52.046Z,22.00
2019-05-19T17:57:21.951Z,21.90
2019-05-19T17:59:51.960Z,21.90
2019-05-19T18:02:21.366Z,21.80
2019-05-19T18:04:50.704Z,21.80
2019-05-19T18:07:20.069Z,21.80
2019-05-19T18:09:49.543Z,21.70
2019-05-19T18:12:19.048Z,21.70
2019-05-19T18:14:48.532Z,21.70
2019-05-19T18:17:18.008Z,21.60
2019-05-19T18:19:47.520Z,21.60
2019-05-19T18:22:16.988Z,21.50
2019-05-19T18:24:46.379Z,21.50
2019-05-19T18:27:15.909Z,21.40
2019-05-19T18:29:45.402Z,21.30
2019-05-19T18:32:14.923Z,21.30
2019-05-19T18:34:44.449Z,21.20
2019-05-19T18:37:13.922Z,21.20
2019-05-19T18:39:43.230Z,21.10
2019-05-19T18:42:27.586Z,21.10
2019-05-19T18:44:57.416Z,21.00
2019-05-19T18:47:31.643Z,21.00
2019-05-19T18:50:01.225Z,20.90
2019-05-19T18:52:30.749Z,20.90
2019-05-19T18:55:00.152Z,21.00
2019-05-19T18:57:29.689Z,20.90
2019-05-19T18:59:59.290Z,20.80
2019-05-19T19:02:28.873Z,20.80
2019-05-19T19:04:58.243Z,20.80
2019-05-19T19:07:45.607Z,20.80
2019-05-19T19:10:15.067Z,20.80
2019-05-19T19:12:44.540Z,20.80
2019-05-19T19:15:14.235Z,20.70
2019-05-19T19:17:43.752Z,20.70
2019-05-19T19:20:13.394Z,20.60
2019-05-19T19:22:42.969Z,20.50
2019-05-19T19:25:12.546Z,20.50
2019-05-19T19:27:42.122Z,20.50
2019-05-19T19:30:11.833Z,20.40
2019-05-19T19:32:41.368Z,20.30
2019-05-19T19:35:11.094Z,20.30
2019-05-19T19:37:40.545Z,20.40
2019-05-19T19:40:10.023Z,20.30
2019-05-19T19:42:39.521Z,20.40
2019-05-19T19:45:09.138Z,20.40
2019-05-19T19:47:38.677Z,20.40
2019-05-19T19:50:08.252Z,20.30
2019-05-19T19:52:38.067Z,20.20
2019-05-19T19:55:08.049Z,20.20
2019-05-19T19:57:37.643Z,20.20
2019-05-19T20:00:18.423Z,20.20
2019-05-19T20:02:44.447Z,20.10
2019-05-19T20:05:14.136Z,20.10
2019-05-19T20:07:43.644Z,20.00
2019-05-19T20:10:13.199Z,19.90
2019-05-19T20:12:43.804Z,19.90
2019-05-19T20:15:16.799Z,19.80
2019-05-19T20:17:46.336Z,19.60
2019-05-19T20:20:15.842Z,19.60
2019-05-19T20:22:45.279Z,19.50
2019-05-19T20:25:15.155Z,19.50
2019-05-19T20:27:44.678Z,19.40
2019-05-19T20:30:14.288Z,19.40
2019-05-19T20:32:43.874Z,19.30
2019-05-19T20:35:13.622Z,19.40
2019-05-19T20:37:43.112Z,19.30
2019-05-19T20:40:13.607Z,19.30
2019-05-19T20:42:42.720Z,19.30
2019-05-19T20:45:11.932Z,19.30
2019-05-19T20:47:40.889Z,19.30
2019-05-19T20:50:11.512Z,19.20
2019-05-19T20:52:40.465Z,19.20
2019-05-19T20:55:09.688Z,19.20
2019-05-19T20:57:38.690Z,19.20
2019-05-19T21:00:08.638Z,19.10
2019-05-19T21:02:37.681Z,19.10
2019-05-19T21:05:06.988Z,19.10
2019-05-19T21:07:35.972Z,19.00
2019-05-19T21:10:05.990Z,19.00
2019-05-19T21:12:35.180Z,18.90
2019-05-19T21:15:04.419Z,18.80
2019-05-19T21:17:33.445Z,18.80
2019-05-19T21:20:04.463Z,18.70
2019-05-19T21:22:33.542Z,18.70
2019-05-19T21:25:02.756Z,18.70
2019-05-19T21:27:31.734Z,18.60
2019-05-19T21:30:00.832Z,18.50
2019-05-19T21:32:29.866Z,18.50
2019-05-19T21:34:58.870Z,18.50
2019-05-19T21:37:28.171Z,18.50
2019-05-19T21:39:57.135Z,18.40
2019-05-19T21:42:26.125Z,18.40
2019-05-19T21:44:55.162Z,18.30
2019-05-19T21:47:24.262Z,18.20
2019-05-19T21:49:53.583Z,18.20
2019-05-19T21:52:22.612Z,18.20
2019-05-19T21:54:51.576Z,18.20
2019-05-19T21:57:20.795Z,18.10
2019-05-19T21:59:49.765Z,18.00
2019-05-19T22:02:18.940Z,18.00
2019-05-19T22:04:47.897Z,17.90
2019-05-19T22:07:33.867Z,17.80
2019-05-19T22:10:02.936Z,17.80
2019-05-19T22:12:31.889Z,17.70
2019-05-19T22:15:00.866Z,17.70
2019-05-19T22:17:29.927Z,17.70
2019-05-19T22:19:58.898Z,17.70
2019-05-19T22:22:27.928Z,17.70
2019-05-19T22:24:56.987Z,17.60
2019-05-19T22:27:25.962Z,17.60
2019-05-19T22:29:54.977Z,17.50
2019-05-19T22:32:24.040Z,17.40
2019-05-19T22:34:53.104Z,17.40
2019-05-19T22:37:22.090Z,17.40
2019-05-19T22:39:51.053Z,17.30
2019-05-19T22:42:20.102Z,17.20
2019-05-19T22:44:49.104Z,17.10
2019-05-19T22:47:18.144Z,17.00
2019-05-19T22:49:47.112Z,16.90
2019-05-19T22:52:16.161Z,16.90
2019-05-19T22:54:45.205Z,16.80
2019-05-19T22:57:14.246Z,16.70
2019-05-19T22:59:43.192Z,16.70
2019-05-19T23:02:12.227Z,16.70
2019-05-19T23:04:41.288Z,16.70
2019-05-19T23:07:10.349Z,16.60
2019-05-19T23:09:40.267Z,16.60
2019-05-19T23:12:09.344Z,16.50
2019-05-19T23:14:38.343Z,16.50
2019-05-19T23:17:07.432Z,16.40
2019-05-19T23:19:36.462Z,16.40
2019-05-19T23:22:05.521Z,16.40
2019-05-19T23:24:34.487Z,16.30
2019-05-19T23:27:03.460Z,16.30
2019-05-19T23:29:32.579Z,16.20
2019-05-19T23:32:07.051Z,16.10
2019-05-19T23:34:32.285Z,16.00
2019-05-19T23:37:01.297Z,15.90
2019-05-19T23:39:30.362Z,15.80
2019-05-19T23:41:59.418Z,15.70
2019-05-19T23:44:28.383Z,15.70
2019-05-19T23:46:57.386Z,15.70
2019-05-19T23:49:26.505Z,15.60
2019-05-19T23:51:55.487Z,15.60
2019-05-19T23:54:24.477Z,15.60
2019-05-19T23:56:53.558Z,15.70
2019-05-19T23:59:22.757Z,15.70
